createdAt,value
2023-01-19T00:01:15.191Z,21.32
2023-01-19T00:03:17.971Z,21.36
2023-01-19T00:05:19.311Z,21.42
2023-01-19T00:07:20.650Z,21.46
2023-01-19T00:09:22.738Z,21.49
2023-01-19T00:11:24.063Z,21.48
2023-01-19T00:13:25.400Z,21.48
2023-01-19T00:15:26.740Z,21.48
2023-01-19T00:17:28.041Z,21.47
2023-01-19T00:19:29.366Z,21.45
2023-01-19T00:21:30.658Z,21.43
2023-01-19T00:23:32.035Z,21.41
2023-01-19T00:25:33.331Z,21.39
2023-01-19T00:27:35.051Z,21.36
2023-01-19T00:29:36.516Z,21.33
2023-01-19T00:31:37.933Z,21.27
2023-01-19T00:33:39.383Z,21.24
2023-01-19T00:35:42.488Z,21.18
2023-01-19T00:37:46.169Z,21.17
2023-01-19T00:39:47.521Z,21.14
2023-01-19T00:42:07.691Z,21.14
2023-01-19T00:44:08.996Z,21.11
2023-01-19T00:46:10.330Z,21.09
2023-01-19T00:48:11.699Z,21.06
2023-01-19T00:50:13.023Z,21.04
2023-01-19T00:52:14.374Z,21.04
2023-01-19T00:54:15.710Z,21.02
2023-01-19T00:56:17.486Z,20.98
2023-01-19T00:58:18.836Z,20.97
2023-01-19T01:00:20.161Z,20.98
2023-01-19T01:02:21.593Z,20.99
2023-01-19T01:04:22.982Z,21.00
2023-01-19T01:06:24.274Z,20.99
2023-01-19T01:08:25.578Z,21.01
2023-01-19T01:10:26.892Z,21.00
2023-01-19T01:12:28.735Z,21.00
2023-01-19T01:14:30.143Z,21.02
2023-01-19T01:16:31.528Z,21.10
2023-01-19T01:18:32.866Z,21.14
2023-01-19T01:20:34.847Z,21.20
2023-01-19T01:22:36.230Z,21.25
2023-01-19T01:24:38.262Z,21.31
2023-01-19T01:26:39.699Z,21.34
2023-01-19T01:28:41.035Z,21.42
2023-01-19T01:30:43.526Z,21.47
2023-01-19T01:32:44.902Z,21.47
2023-01-19T01:34:46.243Z,21.43
2023-01-19T01:36:47.601Z,21.41
2023-01-19T01:38:48.941Z,21.39
2023-01-19T01:40:50.322Z,21.38
2023-01-19T01:42:51.656Z,21.35
2023-01-19T01:44:53.151Z,21.37
2023-01-19T01:46:54.453Z,21.34
2023-01-19T01:48:55.786Z,21.39
2023-01-19T01:51:15.721Z,21.37
2023-01-19T01:53:17.057Z,21.31
2023-01-19T01:55:18.380Z,21.27
2023-01-19T01:57:19.918Z,21.25
2023-01-19T01:59:25.926Z,21.21
2023-01-19T02:01:46.484Z,21.18
2023-01-19T02:03:47.874Z,21.21
2023-01-19T02:05:49.193Z,21.19
2023-01-19T02:08:09.271Z,21.17
2023-01-19T02:10:29.290Z,21.14
2023-01-19T02:12:49.206Z,21.11
2023-01-19T02:14:50.540Z,21.07
2023-01-19T02:16:51.871Z,21.08
2023-01-19T02:18:53.216Z,21.07
2023-01-19T02:20:54.620Z,21.08
2023-01-19T02:22:55.976Z,21.12
2023-01-19T02:24:57.277Z,21.15
2023-01-19T02:26:58.606Z,21.14
2023-01-19T02:28:59.930Z,21.14
2023-01-19T02:31:01.282Z,21.15
2023-01-19T02:33:02.978Z,21.14
2023-01-19T02:35:04.477Z,21.16
2023-01-19T02:37:06.789Z,21.18
2023-01-19T02:39:08.205Z,21.23
2023-01-19T02:41:09.499Z,21.31
2023-01-19T02:43:10.807Z,21.38
2023-01-19T02:45:12.799Z,21.45
2023-01-19T02:47:14.130Z,21.47
2023-01-19T02:49:15.422Z,21.48
2023-01-19T02:51:16.986Z,21.53
2023-01-19T02:53:18.279Z,21.57
2023-01-19T02:55:19.833Z,21.59
2023-01-19T02:57:21.171Z,21.59
2023-01-19T02:59:23.432Z,21.63
2023-01-19T03:01:24.896Z,21.68
2023-01-19T03:03:27.304Z,21.65
2023-01-19T03:05:28.642Z,21.62
2023-01-19T03:07:30.408Z,21.55
2023-01-19T03:09:31.828Z,21.52
2023-01-19T03:11:33.137Z,21.46
2023-01-19T03:13:34.505Z,21.41
2023-01-19T03:15:35.895Z,21.38
2023-01-19T03:17:37.219Z,21.36
2023-01-19T03:19:38.551Z,21.32
2023-01-19T03:21:40.004Z,21.26
2023-01-19T03:23:41.317Z,21.21
2023-01-19T03:25:42.646Z,21.20
2023-01-19T03:27:43.938Z,21.16
2023-01-19T03:29:46.468Z,21.14
2023-01-19T03:31:47.781Z,21.07
2023-01-19T03:33:49.370Z,20.99
2023-01-19T03:35:50.737Z,20.90
2023-01-19T03:37:53.047Z,20.85
2023-01-19T03:39:55.210Z,20.79
2023-01-19T03:41:56.498Z,20.77
2023-01-19T03:43:57.849Z,20.04
2023-01-19T03:45:59.205Z,20.78
2023-01-19T03:48:00.520Z,20.75
2023-01-19T03:50:01.810Z,20.76
2023-01-19T03:52:03.179Z,20.77
2023-01-19T03:54:05.641Z,20.79
2023-01-19T03:56:06.977Z,20.80
2023-01-19T03:58:08.277Z,20.84
2023-01-19T04:00:09.605Z,20.90
2023-01-19T04:02:11.069Z,21.06
2023-01-19T04:04:13.446Z,21.13
2023-01-19T04:06:14.809Z,21.22
2023-01-19T04:08:16.114Z,21.38
2023-01-19T04:10:17.438Z,21.50
2023-01-19T04:12:18.774Z,21.62
2023-01-19T04:14:20.066Z,21.68
2023-01-19T04:16:21.651Z,21.70
2023-01-19T04:18:22.964Z,21.70
2023-01-19T04:20:24.450Z,21.71
2023-01-19T04:22:25.771Z,21.67
2023-01-19T04:24:28.067Z,21.63
2023-01-19T04:26:29.643Z,21.59
2023-01-19T04:28:31.002Z,21.57
2023-01-19T04:30:32.527Z,21.53
2023-01-19T04:32:33.871Z,21.54
2023-01-19T04:34:35.209Z,21.50
2023-01-19T04:36:36.510Z,21.45
2023-01-19T04:38:38.531Z,21.41
2023-01-19T04:40:40.448Z,21.39
2023-01-19T04:42:41.760Z,21.36
2023-01-19T04:44:43.102Z,21.30
2023-01-19T04:46:44.456Z,21.26
2023-01-19T04:48:45.808Z,21.22
2023-01-19T04:50:47.537Z,21.22
2023-01-19T04:52:49.211Z,21.19
2023-01-19T04:54:50.574Z,21.17
2023-01-19T04:56:51.919Z,21.12
2023-01-19T04:58:53.222Z,21.09
2023-01-19T05:00:54.655Z,21.07
2023-01-19T05:02:56.053Z,21.02
2023-01-19T05:04:57.385Z,20.97
2023-01-19T05:06:58.714Z,20.91
2023-01-19T05:09:00.099Z,20.86
2023-01-19T05:11:02.234Z,20.85
2023-01-19T05:13:04.352Z,20.79
2023-01-19T05:15:07.717Z,20.75
2023-01-19T05:17:09.035Z,20.69
2023-01-19T05:19:10.377Z,20.64
2023-01-19T05:21:11.712Z,20.64
2023-01-19T05:23:13.066Z,20.65
2023-01-19T05:25:14.418Z,20.67
2023-01-19T05:27:15.731Z,20.72
2023-01-19T05:29:17.073Z,20.76
2023-01-19T05:31:19.587Z,20.86
2023-01-19T05:33:21.752Z,20.95
2023-01-19T05:35:35.314Z,21.05
2023-01-19T05:37:37.748Z,21.17
2023-01-19T05:39:39.057Z,21.28
2023-01-19T05:41:42.106Z,21.38
2023-01-19T05:43:43.679Z,21.46
2023-01-19T05:45:45.585Z,21.56
2023-01-19T05:47:46.959Z,21.78
2023-01-19T05:49:48.301Z,21.68
2023-01-19T05:51:49.633Z,21.60
2023-01-19T05:53:50.933Z,21.53
2023-01-19T05:55:52.307Z,21.43
2023-01-19T05:57:53.628Z,17.16
2023-01-19T05:59:54.967Z,15.98
2023-01-19T06:01:57.181Z,18.15
2023-01-19T06:03:58.697Z,19.40
2023-01-19T06:06:02.969Z,19.93
2023-01-19T06:08:04.330Z,20.17
2023-01-19T06:10:05.803Z,20.30
2023-01-19T06:12:07.183Z,20.41
2023-01-19T06:14:08.636Z,20.48
2023-01-19T06:16:10.681Z,20.60
2023-01-19T06:18:12.508Z,20.74
2023-01-19T06:20:16.851Z,20.85
2023-01-19T06:22:18.238Z,20.94
2023-01-19T06:24:20.189Z,21.03
2023-01-19T06:26:21.633Z,21.09
2023-01-19T06:28:23.698Z,21.17
2023-01-19T06:30:25.033Z,21.26
2023-01-19T06:32:26.344Z,21.36
2023-01-19T06:34:29.016Z,21.41
2023-01-19T06:36:30.398Z,21.44
2023-01-19T06:38:32.924Z,21.47
2023-01-19T06:40:34.262Z,21.43
2023-01-19T06:42:35.642Z,21.36
2023-01-19T06:44:36.958Z,21.29
2023-01-19T06:46:38.305Z,21.26
2023-01-19T06:48:39.607Z,21.17
2023-01-19T06:50:41.313Z,21.08
2023-01-19T06:52:42.839Z,21.00
2023-01-19T06:54:45.491Z,20.92
2023-01-19T06:56:46.866Z,20.84
2023-01-19T06:58:48.234Z,20.77
2023-01-19T07:00:50.529Z,20.70
2023-01-19T07:02:51.965Z,20.64
2023-01-19T07:04:53.418Z,20.59
2023-01-19T07:06:54.748Z,20.51
2023-01-19T07:08:56.112Z,20.43
2023-01-19T07:11:25.246Z,20.38
2023-01-19T07:13:18.682Z,20.33
2023-01-19T07:15:22.642Z,20.32
2023-01-19T07:17:24.018Z,19.37
2023-01-19T07:19:25.320Z,20.28
2023-01-19T07:21:29.070Z,20.28
2023-01-19T07:23:30.829Z,20.27
2023-01-19T07:25:32.118Z,20.28
2023-01-19T07:27:33.462Z,20.28
2023-01-19T07:29:34.932Z,20.29
2023-01-19T07:31:36.539Z,20.34
2023-01-19T07:33:41.099Z,20.40
2023-01-19T07:35:42.540Z,20.48
2023-01-19T07:37:43.927Z,20.60
2023-01-19T07:39:45.264Z,20.74
2023-01-19T07:41:46.599Z,20.82
2023-01-19T07:43:47.976Z,20.93
2023-01-19T07:45:49.388Z,21.05
2023-01-19T07:47:51.160Z,21.16
2023-01-19T07:49:53.232Z,21.22
2023-01-19T07:51:56.349Z,21.25
2023-01-19T07:53:58.295Z,21.30
2023-01-19T07:55:59.606Z,21.30
2023-01-19T07:58:01.002Z,21.32
2023-01-19T08:00:03.914Z,21.34
2023-01-19T08:02:05.617Z,21.32
2023-01-19T08:04:07.146Z,21.34
2023-01-19T08:06:08.509Z,21.33
2023-01-19T08:08:11.545Z,21.26
2023-01-19T08:10:12.987Z,21.23
2023-01-19T08:12:14.454Z,21.15
2023-01-19T08:14:15.773Z,21.09
2023-01-19T08:16:17.075Z,21.01
2023-01-19T08:18:18.564Z,20.97
2023-01-19T08:20:19.893Z,20.93
2023-01-19T08:22:21.227Z,20.89
2023-01-19T08:24:22.948Z,20.84
2023-01-19T08:26:27.323Z,20.79
2023-01-19T08:28:28.661Z,20.75
2023-01-19T08:30:30.473Z,20.71
2023-01-19T08:32:32.710Z,20.65
2023-01-19T08:34:34.146Z,20.62
2023-01-19T08:36:35.501Z,20.60
2023-01-19T08:38:36.853Z,20.56
2023-01-19T08:40:38.287Z,20.56
2023-01-19T08:42:39.585Z,20.54
2023-01-19T08:44:49.702Z,20.51
2023-01-19T08:46:58.312Z,20.49
2023-01-19T08:48:59.612Z,20.46
2023-01-19T08:51:00.905Z,20.45
2023-01-19T08:53:02.601Z,20.46
2023-01-19T08:55:04.310Z,20.47
2023-01-19T08:57:05.659Z,20.51
2023-01-19T08:59:10.425Z,20.60
2023-01-19T09:01:14.899Z,20.69
2023-01-19T09:03:16.334Z,20.77
2023-01-19T09:05:17.690Z,20.91
2023-01-19T09:07:19.033Z,20.99
2023-01-19T09:09:20.333Z,21.11
2023-01-19T09:11:21.666Z,21.20
2023-01-19T09:13:22.984Z,21.26
2023-01-19T09:15:24.290Z,21.28
2023-01-19T09:17:25.642Z,21.30
2023-01-19T09:19:26.944Z,21.33
2023-01-19T09:21:28.938Z,21.34
2023-01-19T09:23:30.239Z,21.34
2023-01-19T09:25:31.622Z,21.31
2023-01-19T09:27:32.932Z,21.27
2023-01-19T09:29:34.269Z,21.27
2023-01-19T09:31:35.670Z,21.22
2023-01-19T09:33:37.277Z,21.17
2023-01-19T09:35:38.568Z,21.14
2023-01-19T09:37:40.096Z,21.08
2023-01-19T09:39:41.519Z,21.04
2023-01-19T09:41:42.866Z,21.00
2023-01-19T09:43:45.509Z,20.96
2023-01-19T09:45:46.814Z,20.92
2023-01-19T09:47:48.628Z,20.90
2023-01-19T09:49:49.999Z,20.88
2023-01-19T09:51:51.427Z,20.86
2023-01-19T09:53:52.841Z,20.83
2023-01-19T09:55:54.494Z,20.79
2023-01-19T09:57:55.796Z,20.80
2023-01-19T10:00:00.022Z,20.81
2023-01-19T10:02:02.196Z,20.80
2023-01-19T10:04:03.804Z,20.80
2023-01-19T10:06:05.195Z,20.80
2023-01-19T10:08:08.552Z,20.78
2023-01-19T10:10:09.852Z,20.78
2023-01-19T10:12:11.178Z,20.75
2023-01-19T10:14:12.514Z,20.72
2023-01-19T10:16:14.395Z,20.71
2023-01-19T10:18:15.752Z,20.72
2023-01-19T10:20:18.005Z,20.72
2023-01-19T10:22:19.318Z,20.77
2023-01-19T10:24:20.640Z,20.86
2023-01-19T10:26:21.951Z,20.93
2023-01-19T10:28:23.299Z,21.08
2023-01-19T10:30:24.662Z,21.15
2023-01-19T10:32:26.118Z,21.23
2023-01-19T10:34:27.545Z,21.26
2023-01-19T10:36:29.550Z,21.34
2023-01-19T10:38:33.158Z,21.37
2023-01-19T10:40:34.575Z,21.34
2023-01-19T10:42:35.910Z,21.35
2023-01-19T10:44:37.285Z,21.36
2023-01-19T10:46:38.921Z,21.35
2023-01-19T10:48:40.239Z,21.37
2023-01-19T10:50:41.557Z,21.38
2023-01-19T10:52:44.780Z,21.38
2023-01-19T10:54:48.449Z,21.35
2023-01-19T10:56:49.902Z,21.32
2023-01-19T10:58:51.231Z,21.27
2023-01-19T11:00:52.728Z,21.21
2023-01-19T11:02:54.152Z,21.14
2023-01-19T11:04:55.603Z,21.09
2023-01-19T11:06:56.929Z,21.04
2023-01-19T11:08:58.268Z,20.96
2023-01-19T11:10:59.600Z,20.92
2023-01-19T11:13:01.517Z,20.87
2023-01-19T11:15:03.140Z,20.83
2023-01-19T11:17:04.445Z,20.79
2023-01-19T11:19:05.845Z,20.75
2023-01-19T11:21:07.186Z,20.71
2023-01-19T11:23:08.498Z,20.68
2023-01-19T11:25:09.826Z,20.66
2023-01-19T11:27:11.118Z,20.63
2023-01-19T11:29:12.419Z,20.60
2023-01-19T11:31:13.832Z,20.58
2023-01-19T11:33:15.214Z,20.55
2023-01-19T11:35:16.532Z,20.55
2023-01-19T11:37:18.109Z,20.54
2023-01-19T11:39:20.404Z,20.55
2023-01-19T11:41:21.735Z,20.60
2023-01-19T11:43:23.051Z,20.65
2023-01-19T11:45:24.403Z,20.70
2023-01-19T11:47:25.771Z,20.82
2023-01-19T11:49:27.110Z,20.86
2023-01-19T11:51:28.762Z,20.95
2023-01-19T11:53:30.091Z,21.02
2023-01-19T11:55:31.441Z,21.08
2023-01-19T11:57:32.739Z,21.13
2023-01-19T11:59:34.034Z,21.14
2023-01-19T12:01:35.385Z,21.17
2023-01-19T12:03:36.705Z,21.17
2023-01-19T12:05:38.050Z,21.18
2023-01-19T12:07:39.457Z,21.17
2023-01-19T12:09:42.729Z,21.15
2023-01-19T12:11:44.101Z,21.12
2023-01-19T12:13:45.424Z,21.09
2023-01-19T12:15:46.769Z,21.09
2023-01-19T12:17:48.097Z,21.07
2023-01-19T12:19:53.978Z,21.01
2023-01-19T12:21:56.093Z,20.95
2023-01-19T12:23:57.536Z,20.90
2023-01-19T12:25:58.888Z,20.84
2023-01-19T12:28:00.345Z,20.81
2023-01-19T12:30:01.640Z,20.78
2023-01-19T12:32:02.975Z,20.74
2023-01-19T12:34:04.326Z,20.72
2023-01-19T12:36:08.487Z,20.66
2023-01-19T12:38:09.789Z,20.62
2023-01-19T12:40:11.364Z,20.60
2023-01-19T12:42:12.961Z,20.55
2023-01-19T12:44:16.070Z,20.53
2023-01-19T12:46:17.414Z,20.50
2023-01-19T12:48:18.722Z,20.48
2023-01-19T12:50:21.123Z,20.47
2023-01-19T12:52:22.457Z,20.47
2023-01-19T12:54:23.802Z,20.45
2023-01-19T12:56:25.140Z,20.47
2023-01-19T12:58:26.503Z,20.46
2023-01-19T13:00:27.803Z,20.51
2023-01-19T13:02:29.161Z,20.58
2023-01-19T13:04:30.461Z,20.64
2023-01-19T13:06:31.755Z,20.72
2023-01-19T13:08:34.831Z,20.78
2023-01-19T13:10:36.127Z,20.86
2023-01-19T13:12:37.480Z,20.94
2023-01-19T13:14:38.777Z,21.03
2023-01-19T13:16:40.111Z,21.05
2023-01-19T13:18:41.688Z,21.12
2023-01-19T13:20:43.035Z,21.12
2023-01-19T13:22:44.327Z,21.16
2023-01-19T13:24:45.720Z,21.18
2023-01-19T13:26:47.019Z,21.17
2023-01-19T13:28:48.929Z,21.12
2023-01-19T13:30:50.346Z,21.05
2023-01-19T13:32:51.761Z,20.94
2023-01-19T13:34:53.064Z,20.81
2023-01-19T13:36:54.413Z,20.72
2023-01-19T13:38:55.741Z,20.64
2023-01-19T13:40:57.044Z,20.60
2023-01-19T13:42:58.359Z,20.54
2023-01-19T13:44:59.744Z,20.50
2023-01-19T13:47:01.327Z,20.48
2023-01-19T13:49:02.652Z,20.47
2023-01-19T13:51:04.254Z,20.44
2023-01-19T13:53:06.067Z,20.44
2023-01-19T13:55:09.482Z,20.41
2023-01-19T13:57:11.050Z,20.41
2023-01-19T13:59:12.660Z,20.40
2023-01-19T14:01:14.106Z,20.40
2023-01-19T14:03:15.678Z,20.38
2023-01-19T14:05:17.052Z,20.38
2023-01-19T14:07:23.407Z,20.38
2023-01-19T14:09:25.081Z,20.41
2023-01-19T14:11:26.472Z,20.42
2023-01-19T14:13:29.530Z,20.48
2023-01-19T14:15:30.898Z,20.50
2023-01-19T14:17:32.585Z,20.58
2023-01-19T14:19:34.067Z,20.63
2023-01-19T14:21:35.493Z,20.69
2023-01-19T14:23:36.842Z,20.72
2023-01-19T14:25:39.618Z,20.79
2023-01-19T14:27:40.907Z,20.07
2023-01-19T14:29:43.776Z,20.87
2023-01-19T14:31:45.112Z,20.90
2023-01-19T14:33:47.104Z,20.96
2023-01-19T14:35:48.471Z,20.98
2023-01-19T14:37:49.805Z,21.04
2023-01-19T14:39:51.196Z,21.05
2023-01-19T14:41:52.806Z,21.06
2023-01-19T14:43:55.969Z,21.06
2023-01-19T14:45:57.859Z,21.02
2023-01-19T14:47:59.638Z,21.03
2023-01-19T14:50:01.159Z,21.01
2023-01-19T14:52:02.510Z,20.98
2023-01-19T14:54:03.866Z,20.96
2023-01-19T14:56:05.213Z,20.86
2023-01-19T14:58:06.545Z,20.82
2023-01-19T15:00:08.091Z,20.77
2023-01-19T15:02:09.571Z,20.74
2023-01-19T15:04:14.033Z,20.72
2023-01-19T15:06:15.366Z,20.69
2023-01-19T15:08:16.716Z,20.64
2023-01-19T15:10:18.058Z,20.59
2023-01-19T15:12:20.706Z,20.54
2023-01-19T15:14:22.084Z,20.52
2023-01-19T15:16:26.196Z,20.48
2023-01-19T15:18:27.577Z,20.47
2023-01-19T15:20:28.916Z,20.45
2023-01-19T15:22:30.280Z,20.42
2023-01-19T15:24:31.666Z,20.41
2023-01-19T15:26:32.996Z,20.38
2023-01-19T15:28:34.357Z,20.38
2023-01-19T15:30:35.684Z,20.38
2023-01-19T15:32:39.064Z,20.40
2023-01-19T15:34:40.414Z,20.44
2023-01-19T15:36:42.601Z,20.47
2023-01-19T15:38:44.183Z,20.54
2023-01-19T15:40:46.948Z,20.62
2023-01-19T15:42:49.271Z,20.70
2023-01-19T15:44:50.638Z,20.77
2023-01-19T15:46:54.533Z,20.85
2023-01-19T15:48:55.999Z,20.88
2023-01-19T15:51:00.101Z,20.92
2023-01-19T15:53:02.225Z,20.95
2023-01-19T15:55:03.527Z,20.98
2023-01-19T15:57:04.926Z,21.03
2023-01-19T15:59:06.230Z,21.05
2023-01-19T16:01:07.704Z,21.07
2023-01-19T16:03:09.155Z,21.09
2023-01-19T16:05:10.702Z,21.12
2023-01-19T16:07:12.609Z,21.07
2023-01-19T16:09:18.415Z,21.04
2023-01-19T16:11:19.702Z,21.03
2023-01-19T16:13:21.002Z,20.96
2023-01-19T16:15:23.677Z,20.91
2023-01-19T16:17:25.079Z,20.83
2023-01-19T16:19:26.468Z,20.80
2023-01-19T16:21:28.105Z,20.75
2023-01-19T16:23:29.441Z,20.70
2023-01-19T16:25:31.120Z,20.66
2023-01-19T16:27:32.418Z,20.63
2023-01-19T16:29:39.400Z,20.57
2023-01-19T16:31:43.559Z,20.53
2023-01-19T16:33:44.904Z,20.47
2023-01-19T16:35:46.195Z,20.73
2023-01-19T16:37:47.519Z,20.85
2023-01-19T16:39:49.840Z,20.65
2023-01-19T16:41:54.058Z,20.81
2023-01-19T16:43:55.386Z,21.47
2023-01-19T16:45:58.021Z,22.10
2023-01-19T16:47:59.458Z,22.41
2023-01-19T16:50:03.873Z,22.49
2023-01-19T16:52:05.256Z,22.69
2023-01-19T16:54:06.614Z,22.66
2023-01-19T16:56:07.942Z,22.69
2023-01-19T16:58:09.444Z,23.06
2023-01-19T17:00:10.962Z,23.15
2023-01-19T17:02:12.570Z,22.90
2023-01-19T17:04:13.991Z,22.69
2023-01-19T17:06:15.278Z,22.75
2023-01-19T17:08:16.678Z,22.70
2023-01-19T17:10:20.912Z,22.68
2023-01-19T17:12:22.302Z,22.41
2023-01-19T17:14:23.682Z,22.28
2023-01-19T17:16:25.068Z,22.88
2023-01-19T17:18:26.411Z,22.86
2023-01-19T17:20:27.704Z,22.56
2023-01-19T17:22:29.006Z,22.90
2023-01-19T17:24:30.395Z,23.27
2023-01-19T17:26:34.549Z,22.89
2023-01-19T17:28:35.851Z,22.28
2023-01-19T17:30:37.321Z,21.85
2023-01-19T17:32:38.714Z,21.83
2023-01-19T17:34:40.062Z,22.03
2023-01-19T17:36:41.399Z,22.32
2023-01-19T17:38:42.846Z,22.32
2023-01-19T17:40:44.237Z,22.33
2023-01-19T17:42:45.559Z,22.40
2023-01-19T17:44:46.864Z,22.27
2023-01-19T17:46:48.595Z,22.10
2023-01-19T17:48:49.931Z,21.99
2023-01-19T17:50:51.218Z,21.94
2023-01-19T17:52:55.534Z,21.95
2023-01-19T17:54:57.094Z,22.62
2023-01-19T17:56:58.449Z,22.59
2023-01-19T17:58:59.824Z,22.21
2023-01-19T18:01:01.176Z,22.01
2023-01-19T18:03:02.573Z,21.60
2023-01-19T18:05:03.925Z,21.84
2023-01-19T18:07:05.331Z,21.96
2023-01-19T18:09:07.398Z,22.13
2023-01-19T18:11:08.782Z,22.08
2023-01-19T18:13:10.949Z,22.30
2023-01-19T18:15:16.912Z,22.14
2023-01-19T18:17:18.615Z,22.43
2023-01-19T18:19:22.176Z,22.39
2023-01-19T18:21:23.636Z,22.22
2023-01-19T18:23:24.982Z,22.22
2023-01-19T18:25:26.293Z,22.07
2023-01-19T18:27:29.147Z,21.66
2023-01-19T18:29:30.575Z,21.41
2023-01-19T18:31:32.027Z,21.36
2023-01-19T18:33:37.062Z,21.22
2023-01-19T18:35:38.365Z,21.52
2023-01-19T18:37:39.685Z,21.65
2023-01-19T18:39:41.073Z,21.62
2023-01-19T18:41:42.439Z,21.69
2023-01-19T18:43:46.783Z,21.74
2023-01-19T18:45:51.799Z,21.76
2023-01-19T18:47:53.111Z,21.79
2023-01-19T18:49:54.411Z,21.85
2023-01-19T18:51:56.154Z,21.91
2023-01-19T18:53:57.594Z,21.95
2023-01-19T18:55:58.994Z,22.00
2023-01-19T18:58:00.358Z,22.05
2023-01-19T19:00:02.167Z,22.10
2023-01-19T19:02:06.741Z,22.02
2023-01-19T19:04:08.496Z,21.77
2023-01-19T19:06:09.889Z,22.10
2023-01-19T19:08:11.198Z,22.06
2023-01-19T19:10:12.703Z,22.03
2023-01-19T19:12:14.153Z,22.04
2023-01-19T19:14:15.487Z,22.03
2023-01-19T19:16:16.825Z,22.04
2023-01-19T19:18:20.945Z,22.50
2023-01-19T19:20:23.379Z,22.33
2023-01-19T19:22:25.644Z,22.11
2023-01-19T19:24:27.078Z,22.05
2023-01-19T19:26:28.619Z,22.11
2023-01-19T19:28:32.900Z,22.19
2023-01-19T19:30:34.621Z,22.29
2023-01-19T19:32:36.006Z,22.33
2023-01-19T19:34:37.337Z,22.38
2023-01-19T19:36:41.605Z,22.40
2023-01-19T19:38:45.015Z,22.43
2023-01-19T19:40:46.310Z,22.43
2023-01-19T19:42:47.601Z,22.42
2023-01-19T19:44:48.895Z,22.42
2023-01-19T19:46:50.284Z,22.16
2023-01-19T19:48:51.664Z,21.82
2023-01-19T19:50:53.671Z,19.34
2023-01-19T19:53:00.949Z,18.38
2023-01-19T19:55:02.283Z,20.53
2023-01-19T19:57:03.668Z,21.53
2023-01-19T19:59:05.085Z,21.97
2023-01-19T20:01:06.552Z,22.37
2023-01-19T20:03:13.414Z,22.26
2023-01-19T20:05:14.715Z,22.26
2023-01-19T20:07:17.937Z,22.40
2023-01-19T20:09:19.344Z,22.40
2023-01-19T20:11:20.701Z,22.52
2023-01-19T20:13:22.183Z,22.75
2023-01-19T20:15:23.523Z,22.76
2023-01-19T20:17:24.828Z,22.79
2023-01-19T20:19:26.208Z,22.81
2023-01-19T20:21:30.338Z,22.89
2023-01-19T20:23:31.646Z,22.90
2023-01-19T20:25:35.618Z,22.90
2023-01-19T20:27:36.911Z,22.61
2023-01-19T20:29:38.242Z,22.64
2023-01-19T20:31:39.588Z,22.84
2023-01-19T20:33:49.826Z,22.46
2023-01-19T20:35:51.997Z,22.19
2023-01-19T20:37:53.292Z,22.03
2023-01-19T20:39:54.594Z,21.93
2023-01-19T20:41:58.798Z,21.82
2023-01-19T20:44:00.203Z,21.73
2023-01-19T20:46:02.276Z,21.65
2023-01-19T20:48:03.620Z,21.57
2023-01-19T20:50:04.973Z,21.50
2023-01-19T20:52:06.367Z,21.42
2023-01-19T20:54:07.854Z,21.34
2023-01-19T20:56:09.307Z,21.28
2023-01-19T20:58:10.636Z,21.20
2023-01-19T21:00:11.989Z,21.15
2023-01-19T21:02:15.060Z,21.11
2023-01-19T21:04:19.524Z,21.06
2023-01-19T21:06:20.905Z,21.43
2023-01-19T21:08:22.227Z,22.00
2023-01-19T21:10:23.532Z,22.24
2023-01-19T21:12:24.863Z,22.32
2023-01-19T21:14:26.166Z,22.37
2023-01-19T21:16:30.529Z,22.48
2023-01-19T21:18:32.132Z,22.73
2023-01-19T21:20:33.427Z,22.52
2023-01-19T21:22:34.769Z,22.42
2023-01-19T21:24:36.156Z,22.57
2023-01-19T21:26:37.846Z,22.70
2023-01-19T21:28:39.174Z,22.39
2023-01-19T21:30:40.517Z,22.29
2023-01-19T21:32:41.860Z,22.08
2023-01-19T21:34:43.192Z,21.55
2023-01-19T21:36:44.729Z,21.92
2023-01-19T21:38:46.037Z,22.75
2023-01-19T21:40:47.397Z,23.07
2023-01-19T21:42:48.734Z,22.83
2023-01-19T21:44:50.097Z,22.92
2023-01-19T21:46:51.448Z,22.87
2023-01-19T21:48:52.789Z,22.82
2023-01-19T21:50:54.088Z,22.88
2023-01-19T21:52:55.414Z,22.72
2023-01-19T21:54:56.728Z,22.68
2023-01-19T21:56:58.114Z,22.64
2023-01-19T21:59:02.256Z,22.61
2023-01-19T22:01:03.681Z,18.23
2023-01-19T22:03:05.276Z,15.98
2023-01-19T22:05:06.718Z,18.41
2023-01-19T22:07:08.114Z,20.17
2023-01-19T22:09:09.476Z,21.14
2023-01-19T22:11:10.776Z,21.66
2023-01-19T22:13:12.114Z,21.96
2023-01-19T22:15:13.688Z,22.20
2023-01-19T22:17:27.402Z,22.33
2023-01-19T22:19:28.745Z,22.46
2023-01-19T22:21:30.080Z,22.59
2023-01-19T22:23:31.383Z,22.69
2023-01-19T22:25:32.717Z,22.77
2023-01-19T22:27:34.049Z,22.87
2023-01-19T22:29:35.350Z,22.73
2023-01-19T22:31:36.763Z,22.26
2023-01-19T22:33:38.139Z,22.09
2023-01-19T22:35:39.478Z,22.18
2023-01-19T22:37:40.783Z,22.22
2023-01-19T22:39:43.365Z,22.12
2023-01-19T22:41:44.895Z,22.03
2023-01-19T22:43:46.226Z,21.94
2023-01-19T22:45:47.614Z,21.85
2023-01-19T22:47:49.020Z,21.76
2023-01-19T22:49:50.314Z,21.71
2023-01-19T22:51:54.007Z,21.66
2023-01-19T22:53:55.356Z,21.61
2023-01-19T22:55:56.649Z,21.52
2023-01-19T22:57:57.988Z,21.46
2023-01-19T22:59:59.284Z,21.40
2023-01-19T23:02:00.806Z,21.33
2023-01-19T23:04:02.556Z,21.27
2023-01-19T23:06:04.353Z,21.25
2023-01-19T23:08:05.638Z,21.21
2023-01-19T23:10:06.968Z,21.17
2023-01-19T23:12:08.286Z,21.14
2023-01-19T23:14:11.475Z,21.07
2023-01-19T23:16:12.824Z,21.05
2023-01-19T23:18:14.134Z,21.03
2023-01-19T23:20:15.483Z,20.98
2023-01-19T23:22:16.791Z,20.93
2023-01-19T23:24:18.095Z,20.90
2023-01-19T23:26:19.581Z,20.87
2023-01-19T23:28:20.884Z,20.88
2023-01-19T23:30:22.299Z,20.88
2023-01-19T23:32:23.659Z,20.89
2023-01-19T23:34:24.980Z,20.89
2023-01-19T23:36:26.302Z,20.90
2023-01-19T23:38:27.643Z,20.93
2023-01-19T23:40:29.018Z,20.98
2023-01-19T23:42:30.315Z,21.07
2023-01-19T23:44:31.643Z,21.12
2023-01-19T23:46:33.000Z,21.20
2023-01-19T23:48:34.346Z,21.26
2023-01-19T23:50:35.802Z,21.32
2023-01-19T23:52:37.106Z,21.38
2023-01-19T23:54:38.625Z,21.44
2023-01-19T23:56:39.957Z,21.47
2023-01-19T23:58:41.250Z,21.49
